sensor_id;sensor_type;location;lat;lon;timestamp;temperature;humidity
29201;DHT22;16244;51.956;12.980;2022-07-12T00:02:24;14.20;99.90
29201;DHT22;16244;51.956;12.980;2022-07-12T00:04:51;14.20;99.90
29201;DHT22;16244;51.956;12.980;2022-07-12T00:07:19;14.10;99.90
29201;DHT22;16244;51.956;12.980;2022-07-12T00:09:47;14.10;99.90
29201;DHT22;16244;51.956;12.980;2022-07-12T00:12:14;14.10;99.90
29201;DHT22;16244;51.956;12.980;2022-07-12T00:14:41;14.10;99.90
29201;DHT22;16244;51.956;12.980;2022-07-12T00:17:08;14.00;99.90
29201;DHT22;16244;51.956;12.980;2022-07-12T00:19:36;14.00;99.90
29201;DHT22;16244;51.956;12.980;2022-07-12T00:22:03;14.00;99.90
29201;DHT22;16244;51.956;12.980;2022-07-12T00:24:32;14.00;99.90
29201;DHT22;16244;51.956;12.980;2022-07-12T00:26:59;14.00;99.90
29201;DHT22;16244;51.956;12.980;2022-07-12T00:29:26;14.00;99.90
29201;DHT22;16244;51.956;12.980;2022-07-12T00:31:53;13.90;99.90
29201;DHT22;16244;51.956;12.980;2022-07-12T00:34:20;13.80;99.90
29201;DHT22;16244;51.956;12.980;2022-07-12T00:36:47;13.80;99.90
29201;DHT22;16244;51.956;12.980;2022-07-12T00:39:14;13.70;99.90
29201;DHT22;16244;51.956;12.980;2022-07-12T00:41:43;13.70;99.90
29201;DHT22;16244;51.956;12.980;2022-07-12T00:44:14;13.70;99.90
29201;DHT22;16244;51.956;12.980;2022-07-12T00:46:41;13.70;99.90
29201;DHT22;16244;51.956;12.980;2022-07-12T00:49:09;13.60;99.90
29201;DHT22;16244;51.956;12.980;2022-07-12T00:51:41;13.70;99.90
29201;DHT22;16244;51.956;12.980;2022-07-12T00:54:09;13.70;99.90
29201;DHT22;16244;51.956;12.980;2022-07-12T00:56:37;13.60;99.90
29201;DHT22;16244;51.956;12.980;2022-07-12T00:59:05;13.60;99.90
29201;DHT22;16244;51.956;12.980;2022-07-12T01:01:33;13.60;99.90
29201;DHT22;16244;51.956;12.980;2022-07-12T01:04:00;13.60;99.90
29201;DHT22;16244;51.956;12.980;2022-07-12T01:06:29;13.60;99.90
29201;DHT22;16244;51.956;12.980;2022-07-12T01:08:57;13.60;99.90
29201;DHT22;16244;51.956;12.980;2022-07-12T01:11:25;13.60;99.90
29201;DHT22;16244;51.956;12.980;2022-07-12T01:13:53;13.60;99.90
29201;DHT22;16244;51.956;12.980;2022-07-12T01:16:22;13.50;99.90
29201;DHT22;16244;51.956;12.980;2022-07-12T01:18:51;13.40;99.90
29201;DHT22;16244;51.956;12.980;2022-07-12T01:21:19;13.20;99.90
29201;DHT22;16244;51.956;12.980;2022-07-12T01:23:51;13.00;99.90
29201;DHT22;16244;51.956;12.980;2022-07-12T01:26:18;12.90;99.90
29201;DHT22;16244;51.956;12.980;2022-07-12T01:28:46;12.90;99.90
29201;DHT22;16244;51.956;12.980;2022-07-12T01:31:14;12.90;99.90
29201;DHT22;16244;51.956;12.980;2022-07-12T01:33:42;12.70;99.90
29201;DHT22;16244;51.956;12.980;2022-07-12T01:36:09;12.60;99.90
29201;DHT22;16244;51.956;12.980;2022-07-12T01:38:36;12.70;99.90
29201;DHT22;16244;51.956;12.980;2022-07-12T01:41:05;12.60;99.90
29201;DHT22;16244;51.956;12.980;2022-07-12T01:43:33;12.50;99.90
29201;DHT22;16244;51.956;12.980;2022-07-12T01:46:00;12.50;99.90
29201;DHT22;16244;51.956;12.980;2022-07-12T01:48:27;12.40;99.90
29201;DHT22;16244;51.956;12.980;2022-07-12T01:50:54;12.30;99.90
29201;DHT22;16244;51.956;12.980;2022-07-12T01:53:22;12.30;99.90
29201;DHT22;16244;51.956;12.980;2022-07-12T01:55:49;12.30;99.90
29201;DHT22;16244;51.956;12.980;2022-07-12T01:58:18;12.30;99.90
29201;DHT22;16244;51.956;12.980;2022-07-12T02:00:45;12.40;99.90
29201;DHT22;16244;51.956;12.980;2022-07-12T02:03:17;12.40;99.90
29201;DHT22;16244;51.956;12.980;2022-07-12T02:05:44;12.40;99.90
29201;DHT22;16244;51.956;12.980;2022-07-12T02:08:12;12.50;99.90
29201;DHT22;16244;51.956;12.980;2022-07-12T02:10:39;12.70;99.90
29201;DHT22;16244;51.956;12.980;2022-07-12T02:13:06;12.70;99.90
29201;DHT22;16244;51.956;12.980;2022-07-12T02:15:35;12.70;99.90
29201;DHT22;16244;51.956;12.980;2022-07-12T02:18:02;12.70;99.90
29201;DHT22;16244;51.956;12.980;2022-07-12T02:20:29;12.70;99.90
29201;DHT22;16244;51.956;12.980;2022-07-12T02:22:57;12.70;99.90
29201;DHT22;16244;51.956;12.980;2022-07-12T02:25:24;12.70;99.90
29201;DHT22;16244;51.956;12.980;2022-07-12T02:27:51;12.70;99.90
29201;DHT22;16244;51.956;12.980;2022-07-12T02:30:18;12.70;99.90
29201;DHT22;16244;51.956;12.980;2022-07-12T02:32:47;12.70;99.90
29201;DHT22;16244;51.956;12.980;2022-07-12T02:35:14;12.80;99.90
29201;DHT22;16244;51.956;12.980;2022-07-12T02:37:41;12.70;99.90
29201;DHT22;16244;51.956;12.980;2022-07-12T02:40:09;12.60;99.90
29201;DHT22;16244;51.956;12.980;2022-07-12T02:42:54;12.60;99.90
29201;DHT22;16244;51.956;12.980;2022-07-12T02:45:22;12.60;99.90
29201;DHT22;16244;51.956;12.980;2022-07-12T02:47:50;12.60;99.90
29201;DHT22;16244;51.956;12.980;2022-07-12T02:50:17;12.60;99.90
29201;DHT22;16244;51.956;12.980;2022-07-12T02:52:44;12.60;99.90
29201;DHT22;16244;51.956;12.980;2022-07-12T02:55:11;12.50;99.90
29201;DHT22;16244;51.956;12.980;2022-07-12T02:57:38;12.50;99.90
29201;DHT22;16244;51.956;12.980;2022-07-12T03:00:06;12.40;99.90
29201;DHT22;16244;51.956;12.980;2022-07-12T03:02:33;12.40;99.90
29201;DHT22;16244;51.956;12.980;2022-07-12T03:05:02;12.40;99.90
29201;DHT22;16244;51.956;12.980;2022-07-12T03:07:29;12.20;99.90
29201;DHT22;16244;51.956;12.980;2022-07-12T03:09:57;12.20;99.90
29201;DHT22;16244;51.956;12.980;2022-07-12T03:12:24;12.10;99.90
29201;DHT22;16244;51.956;12.980;2022-07-12T03:14:51;12.10;99.90
29201;DHT22;16244;51.956;12.980;2022-07-12T03:17:18;12.20;99.90
29201;DHT22;16244;51.956;12.980;2022-07-12T03:19:45;12.20;99.90
29201;DHT22;16244;51.956;12.980;2022-07-12T03:22:14;12.20;99.90
29201;DHT22;16244;51.956;12.980;2022-07-12T03:24:41;12.30;99.90
29201;DHT22;16244;51.956;12.980;2022-07-12T03:27:08;12.30;99.90
29201;DHT22;16244;51.956;12.980;2022-07-12T03:29:35;12.30;99.90
29201;DHT22;16244;51.956;12.980;2022-07-12T03:32:03;12.30;99.90
29201;DHT22;16244;51.956;12.980;2022-07-12T03:34:32;12.30;99.90
29201;DHT22;16244;51.956;12.980;2022-07-12T03:36:59;12.30;99.90
29201;DHT22;16244;51.956;12.980;2022-07-12T03:39:28;12.40;99.90
29201;DHT22;16244;51.956;12.980;2022-07-12T03:41:55;12.50;99.90
29201;DHT22;16244;51.956;12.980;2022-07-12T03:44:22;12.50;99.90
29201;DHT22;16244;51.956;12.980;2022-07-12T03:46:49;12.60;99.90
29201;DHT22;16244;51.956;12.980;2022-07-12T03:49:16;12.60;99.90
29201;DHT22;16244;51.956;12.980;2022-07-12T03:51:43;12.70;99.90
29201;DHT22;16244;51.956;12.980;2022-07-12T03:54:10;12.60;99.90
29201;DHT22;16244;51.956;12.980;2022-07-12T03:56:39;12.60;99.90
29201;DHT22;16244;51.956;12.980;2022-07-12T03:59:23;12.60;99.90
29201;DHT22;16244;51.956;12.980;2022-07-12T04:01:51;12.80;99.90
29201;DHT22;16244;51.956;12.980;2022-07-12T04:04:18;12.90;99.90
29201;DHT22;16244;51.956;12.980;2022-07-12T04:06:45;12.90;99.90
29201;DHT22;16244;51.956;12.980;2022-07-12T04:09:12;13.00;99.90
29201;DHT22;16244;51.956;12.980;2022-07-12T04:11:41;13.10;99.90
29201;DHT22;16244;51.956;12.980;2022-07-12T04:14:08;13.20;99.90
29201;DHT22;16244;51.956;12.980;2022-07-12T04:16:35;13.20;99.90
29201;DHT22;16244;51.956;12.980;2022-07-12T04:19:03;13.30;99.90
29201;DHT22;16244;51.956;12.980;2022-07-12T04:21:31;13.30;99.90
29201;DHT22;16244;51.956;12.980;2022-07-12T04:23:58;13.40;99.90
29201;DHT22;16244;51.956;12.980;2022-07-12T04:26:25;13.40;99.90
29201;DHT22;16244;51.956;12.980;2022-07-12T04:28:53;13.50;99.90
29201;DHT22;16244;51.956;12.980;2022-07-12T04:31:20;13.60;99.90
29201;DHT22;16244;51.956;12.980;2022-07-12T04:33:47;13.60;99.90
29201;DHT22;16244;51.956;12.980;2022-07-12T04:36:14;13.80;99.90
29201;DHT22;16244;51.956;12.980;2022-07-12T04:38:42;13.90;99.90
29201;DHT22;16244;51.956;12.980;2022-07-12T04:41:09;13.90;99.90
29201;DHT22;16244;51.956;12.980;2022-07-12T04:43:36;13.90;99.90
29201;DHT22;16244;51.956;12.980;2022-07-12T04:46:08;14.00;99.90
29201;DHT22;16244;51.956;12.980;2022-07-12T04:48:35;14.10;99.90
29201;DHT22;16244;51.956;12.980;2022-07-12T04:51:03;14.10;99.90
29201;DHT22;16244;51.956;12.980;2022-07-12T04:53:30;14.20;99.90
29201;DHT22;16244;51.956;12.980;2022-07-12T04:55:58;14.30;99.90
29201;DHT22;16244;51.956;12.980;2022-07-12T04:58:25;14.30;99.90
29201;DHT22;16244;51.956;12.980;2022-07-12T05:00:52;14.40;99.90
29201;DHT22;16244;51.956;12.980;2022-07-12T05:03:20;14.50;99.90
29201;DHT22;16244;51.956;12.980;2022-07-12T05:05:53;14.70;99.90
29201;DHT22;16244;51.956;12.980;2022-07-12T05:08:20;14.80;99.90
29201;DHT22;16244;51.956;12.980;2022-07-12T05:10:48;14.90;99.90
29201;DHT22;16244;51.956;12.980;2022-07-12T05:13:15;15.00;99.90
29201;DHT22;16244;51.956;12.980;2022-07-12T05:15:42;15.10;99.90
29201;DHT22;16244;51.956;12.980;2022-07-12T05:18:09;15.20;99.90
29201;DHT22;16244;51.956;12.980;2022-07-12T05:20:38;15.30;99.90
29201;DHT22;16244;51.956;12.980;2022-07-12T05:23:07;15.40;99.90
29201;DHT22;16244;51.956;12.980;2022-07-12T05:25:37;15.60;99.90
29201;DHT22;16244;51.956;12.980;2022-07-12T05:28:04;15.70;99.90
29201;DHT22;16244;51.956;12.980;2022-07-12T05:30:32;15.80;99.90
29201;DHT22;16244;51.956;12.980;2022-07-12T05:32:59;16.00;99.90
29201;DHT22;16244;51.956;12.980;2022-07-12T05:35:26;16.00;99.90
29201;DHT22;16244;51.956;12.980;2022-07-12T05:37:54;16.20;99.90
29201;DHT22;16244;51.956;12.980;2022-07-12T05:40:21;16.20;99.90
29201;DHT22;16244;51.956;12.980;2022-07-12T05:42:49;16.30;99.90
29201;DHT22;16244;51.956;12.980;2022-07-12T05:45:17;16.40;99.90
29201;DHT22;16244;51.956;12.980;2022-07-12T05:47:44;16.40;99.90
29201;DHT22;16244;51.956;12.980;2022-07-12T05:50:12;16.50;99.90
29201;DHT22;16244;51.956;12.980;2022-07-12T05:52:39;16.60;99.90
29201;DHT22;16244;51.956;12.980;2022-07-12T05:55:25;16.70;99.90
29201;DHT22;16244;51.956;12.980;2022-07-12T05:57:52;16.90;99.90
29201;DHT22;16244;51.956;12.980;2022-07-12T06:00:20;17.00;99.90
29201;DHT22;16244;51.956;12.980;2022-07-12T06:02:47;17.10;99.90
29201;DHT22;16244;51.956;12.980;2022-07-12T06:05:14;17.20;99.90
29201;DHT22;16244;51.956;12.980;2022-07-12T06:07:41;17.40;99.90
29201;DHT22;16244;51.956;12.980;2022-07-12T06:10:12;17.50;99.90
29201;DHT22;16244;51.956;12.980;2022-07-12T06:12:40;17.60;99.90
29201;DHT22;16244;51.956;12.980;2022-07-12T06:15:08;17.60;99.90
29201;DHT22;16244;51.956;12.980;2022-07-12T06:17:36;17.70;99.90
29201;DHT22;16244;51.956;12.980;2022-07-12T06:20:04;17.90;99.90
29201;DHT22;16244;51.956;12.980;2022-07-12T06:22:32;18.00;99.90
29201;DHT22;16244;51.956;12.980;2022-07-12T06:25:02;18.10;99.90
29201;DHT22;16244;51.956;12.980;2022-07-12T06:27:40;18.30;99.90
29201;DHT22;16244;51.956;12.980;2022-07-12T06:30:08;18.40;99.90
29201;DHT22;16244;51.956;12.980;2022-07-12T06:32:35;18.40;99.90
29201;DHT22;16244;51.956;12.980;2022-07-12T06:35:03;18.60;99.90
29201;DHT22;16244;51.956;12.980;2022-07-12T06:37:30;18.70;99.90
29201;DHT22;16244;51.956;12.980;2022-07-12T06:39:57;18.80;99.90
29201;DHT22;16244;51.956;12.980;2022-07-12T06:42:25;18.80;99.90
29201;DHT22;16244;51.956;12.980;2022-07-12T06:44:54;18.90;99.90
29201;DHT22;16244;51.956;12.980;2022-07-12T06:47:21;19.00;99.90
29201;DHT22;16244;51.956;12.980;2022-07-12T06:49:49;19.10;99.90
29201;DHT22;16244;51.956;12.980;2022-07-12T06:52:16;19.30;99.90
29201;DHT22;16244;51.956;12.980;2022-07-12T06:54:44;19.30;99.90
29201;DHT22;16244;51.956;12.980;2022-07-12T06:57:11;19.50;99.90
29201;DHT22;16244;51.956;12.980;2022-07-12T06:59:41;19.70;99.90
29201;DHT22;16244;51.956;12.980;2022-07-12T07:02:18;19.90;99.90
29201;DHT22;16244;51.956;12.980;2022-07-12T07:04:46;20.00;99.90
29201;DHT22;16244;51.956;12.980;2022-07-12T07:07:16;20.10;99.90
29201;DHT22;16244;51.956;12.980;2022-07-12T07:09:45;20.20;99.90
29201;DHT22;16244;51.956;12.980;2022-07-12T07:12:14;20.50;99.90
29201;DHT22;16244;51.956;12.980;2022-07-12T07:14:42;20.60;99.90
29201;DHT22;16244;51.956;12.980;2022-07-12T07:17:20;20.70;99.90
29201;DHT22;16244;51.956;12.980;2022-07-12T07:19:48;20.80;99.90
29201;DHT22;16244;51.956;12.980;2022-07-12T07:22:20;21.00;99.90
29201;DHT22;16244;51.956;12.980;2022-07-12T07:24:52;21.20;99.90
29201;DHT22;16244;51.956;12.980;2022-07-12T07:27:23;21.20;99.90
29201;DHT22;16244;51.956;12.980;2022-07-12T07:29:54;21.30;99.90
29201;DHT22;16244;51.956;12.980;2022-07-12T07:32:41;21.40;99.90
29201;DHT22;16244;51.956;12.980;2022-07-12T07:35:11;21.60;99.90
29201;DHT22;16244;51.956;12.980;2022-07-12T07:37:41;21.70;99.90
29201;DHT22;16244;51.956;12.980;2022-07-12T07:40:13;21.90;99.90
29201;DHT22;16244;51.956;12.980;2022-07-12T07:42:46;22.00;99.90
29201;DHT22;16244;51.956;12.980;2022-07-12T07:45:15;22.20;99.90
29201;DHT22;16244;51.956;12.980;2022-07-12T07:47:47;22.40;99.90
29201;DHT22;16244;51.956;12.980;2022-07-12T07:50:15;22.50;99.90
29201;DHT22;16244;51.956;12.980;2022-07-12T07:52:49;22.80;99.90
29201;DHT22;16244;51.956;12.980;2022-07-12T07:55:17;22.90;99.90
29201;DHT22;16244;51.956;12.980;2022-07-12T07:57:45;23.10;99.90
29201;DHT22;16244;51.956;12.980;2022-07-12T08:00:14;23.30;99.20
29201;DHT22;16244;51.956;12.980;2022-07-12T08:02:41;23.20;99.70
29201;DHT22;16244;51.956;12.980;2022-07-12T08:05:14;23.40;98.90
29201;DHT22;16244;51.956;12.980;2022-07-12T08:07:44;23.60;99.00
29201;DHT22;16244;51.956;12.980;2022-07-12T08:10:11;23.40;95.10
29201;DHT22;16244;51.956;12.980;2022-07-12T08:12:39;23.40;94.60
29201;DHT22;16244;51.956;12.980;2022-07-12T08:15:26;23.40;94.40
29201;DHT22;16244;51.956;12.980;2022-07-12T08:17:57;23.50;93.50
29201;DHT22;16244;51.956;12.980;2022-07-12T08:20:26;23.60;93.30
29201;DHT22;16244;51.956;12.980;2022-07-12T08:22:53;24.00;94.10
29201;DHT22;16244;51.956;12.980;2022-07-12T08:25:20;24.00;92.40
29201;DHT22;16244;51.956;12.980;2022-07-12T08:27:48;24.00;92.60
29201;DHT22;16244;51.956;12.980;2022-07-12T08:30:18;24.10;93.10
29201;DHT22;16244;51.956;12.980;2022-07-12T08:32:45;24.20;95.10
29201;DHT22;16244;51.956;12.980;2022-07-12T08:35:14;24.10;90.70
29201;DHT22;16244;51.956;12.980;2022-07-12T08:37:42;24.30;90.90
29201;DHT22;16244;51.956;12.980;2022-07-12T08:40:10;24.20;90.90
29201;DHT22;16244;51.956;12.980;2022-07-12T08:42:42;24.30;90.80
29201;DHT22;16244;51.956;12.980;2022-07-12T08:45:13;24.30;91.10
29201;DHT22;16244;51.956;12.980;2022-07-12T08:47:43;24.30;90.80
29201;DHT22;16244;51.956;12.980;2022-07-12T08:50:15;24.40;91.60
29201;DHT22;16244;51.956;12.980;2022-07-12T08:52:54;24.70;88.70
29201;DHT22;16244;51.956;12.980;2022-07-12T08:55:23;25.10;92.60
29201;DHT22;16244;51.956;12.980;2022-07-12T08:57:52;25.30;90.20
29201;DHT22;16244;51.956;12.980;2022-07-12T09:00:24;25.40;88.90
29201;DHT22;16244;51.956;12.980;2022-07-12T09:02:53;25.40;89.40
29201;DHT22;16244;51.956;12.980;2022-07-12T09:05:22;25.30;85.80
29201;DHT22;16244;51.956;12.980;2022-07-12T09:07:50;25.20;88.00
29201;DHT22;16244;51.956;12.980;2022-07-12T09:10:22;25.50;86.80
29201;DHT22;16244;51.956;12.980;2022-07-12T09:12:51;25.90;86.90
29201;DHT22;16244;51.956;12.980;2022-07-12T09:15:23;26.10;84.30
29201;DHT22;16244;51.956;12.980;2022-07-12T09:17:58;26.10;84.30
29201;DHT22;16244;51.956;12.980;2022-07-12T09:20:26;26.10;82.20
29201;DHT22;16244;51.956;12.980;2022-07-12T09:23:07;26.30;81.40
29201;DHT22;16244;51.956;12.980;2022-07-12T09:25:50;26.60;85.50
29201;DHT22;16244;51.956;12.980;2022-07-12T09:28:19;26.90;81.00
29201;DHT22;16244;51.956;12.980;2022-07-12T09:30:50;27.20;84.10
29201;DHT22;16244;51.956;12.980;2022-07-12T09:33:20;27.10;86.20
29201;DHT22;16244;51.956;12.980;2022-07-12T09:36:05;27.20;82.30
29201;DHT22;16244;51.956;12.980;2022-07-12T09:38:34;26.60;81.40
29201;DHT22;16244;51.956;12.980;2022-07-12T09:41:07;26.70;78.80
29201;DHT22;16244;51.956;12.980;2022-07-12T09:43:35;26.50;78.30
29201;DHT22;16244;51.956;12.980;2022-07-12T09:46:10;26.70;79.10
29201;DHT22;16244;51.956;12.980;2022-07-12T09:48:45;26.90;76.40
29201;DHT22;16244;51.956;12.980;2022-07-12T09:51:14;26.80;75.60
29201;DHT22;16244;51.956;12.980;2022-07-12T09:54:00;26.40;73.00
29201;DHT22;16244;51.956;12.980;2022-07-12T09:56:38;26.40;75.40
29201;DHT22;16244;51.956;12.980;2022-07-12T09:59:16;26.40;75.80
29201;DHT22;16244;51.956;12.980;2022-07-12T10:01:47;26.70;76.20
29201;DHT22;16244;51.956;12.980;2022-07-12T10:04:20;26.80;75.60
29201;DHT22;16244;51.956;12.980;2022-07-12T10:06:51;26.80;74.80
29201;DHT22;16244;51.956;12.980;2022-07-12T10:09:22;27.00;77.00
29201;DHT22;16244;51.956;12.980;2022-07-12T10:11:51;27.30;74.50
29201;DHT22;16244;51.956;12.980;2022-07-12T10:14:20;27.30;74.80
29201;DHT22;16244;51.956;12.980;2022-07-12T10:16:51;27.10;77.40
29201;DHT22;16244;51.956;12.980;2022-07-12T10:19:26;26.70;75.40
29201;DHT22;16244;51.956;12.980;2022-07-12T10:21:56;26.90;76.00
29201;DHT22;16244;51.956;12.980;2022-07-12T10:24:51;27.20;76.70
29201;DHT22;16244;51.956;12.980;2022-07-12T10:27:31;27.00;73.80
29201;DHT22;16244;51.956;12.980;2022-07-12T10:30:21;27.00;74.40
29201;DHT22;16244;51.956;12.980;2022-07-12T10:32:50;26.90;75.80
29201;DHT22;16244;51.956;12.980;2022-07-12T10:35:47;27.30;75.60
29201;DHT22;16244;51.956;12.980;2022-07-12T10:41:00;27.80;77.00
29201;DHT22;16244;51.956;12.980;2022-07-12T10:43:43;27.90;76.50
29201;DHT22;16244;51.956;12.980;2022-07-12T10:46:28;28.40;81.80
29201;DHT22;16244;51.956;12.980;2022-07-12T10:49:23;28.60;73.90
29201;DHT22;16244;51.956;12.980;2022-07-12T10:52:14;28.50;69.60
29201;DHT22;16244;51.956;12.980;2022-07-12T10:54:46;28.00;69.90
29201;DHT22;16244;51.956;12.980;2022-07-12T10:57:16;28.10;71.60
29201;DHT22;16244;51.956;12.980;2022-07-12T10:59:46;28.00;73.30
29201;DHT22;16244;51.956;12.980;2022-07-12T11:02:16;28.20;71.50
29201;DHT22;16244;51.956;12.980;2022-07-12T11:04:46;28.20;69.90
29201;DHT22;16244;51.956;12.980;2022-07-12T11:07:16;27.80;70.00
29201;DHT22;16244;51.956;12.980;2022-07-12T11:09:44;27.50;70.30
29201;DHT22;16244;51.956;12.980;2022-07-12T11:12:14;27.30;71.00
29201;DHT22;16244;51.956;12.980;2022-07-12T11:14:46;27.60;76.60
29201;DHT22;16244;51.956;12.980;2022-07-12T11:17:13;27.70;72.20
29201;DHT22;16244;51.956;12.980;2022-07-12T11:19:40;27.80;71.40
29201;DHT22;16244;51.956;12.980;2022-07-12T11:22:08;28.00;75.20
29201;DHT22;16244;51.956;12.980;2022-07-12T11:24:35;28.00;72.50
29201;DHT22;16244;51.956;12.980;2022-07-12T11:27:03;28.20;71.60
29201;DHT22;16244;51.956;12.980;2022-07-12T11:29:30;28.30;72.80
29201;DHT22;16244;51.956;12.980;2022-07-12T11:32:04;28.40;74.10
29201;DHT22;16244;51.956;12.980;2022-07-12T11:34:34;28.70;78.10
29201;DHT22;16244;51.956;12.980;2022-07-12T11:37:01;29.10;78.00
29201;DHT22;16244;51.956;12.980;2022-07-12T11:39:33;29.30;72.40
29201;DHT22;16244;51.956;12.980;2022-07-12T11:42:01;29.00;74.70
29201;DHT22;16244;51.956;12.980;2022-07-12T11:44:42;28.60;71.10
29201;DHT22;16244;51.956;12.980;2022-07-12T11:47:11;28.40;69.60
29201;DHT22;16244;51.956;12.980;2022-07-12T11:49:42;28.40;71.20
29201;DHT22;16244;51.956;12.980;2022-07-12T11:52:12;28.60;71.20
29201;DHT22;16244;51.956;12.980;2022-07-12T11:54:39;29.10;80.60
29201;DHT22;16244;51.956;12.980;2022-07-12T11:57:07;29.30;74.60
29201;DHT22;16244;51.956;12.980;2022-07-12T11:59:35;28.90;70.60
29201;DHT22;16244;51.956;12.980;2022-07-12T12:02:03;28.80;70.60
29201;DHT22;16244;51.956;12.980;2022-07-12T12:04:32;28.90;70.10
29201;DHT22;16244;51.956;12.980;2022-07-12T12:06:59;28.70;70.30
29201;DHT22;16244;51.956;12.980;2022-07-12T12:09:26;28.40;69.90
29201;DHT22;16244;51.956;12.980;2022-07-12T12:11:54;28.20;70.60
29201;DHT22;16244;51.956;12.980;2022-07-12T12:14:22;28.40;69.00
29201;DHT22;16244;51.956;12.980;2022-07-12T12:16:49;28.30;68.90
29201;DHT22;16244;51.956;12.980;2022-07-12T12:19:16;28.50;68.30
29201;DHT22;16244;51.956;12.980;2022-07-12T12:21:44;28.30;69.30
29201;DHT22;16244;51.956;12.980;2022-07-12T12:24:12;28.20;69.70
29201;DHT22;16244;51.956;12.980;2022-07-12T12:26:39;27.90;69.20
29201;DHT22;16244;51.956;12.980;2022-07-12T12:29:06;27.70;70.60
29201;DHT22;16244;51.956;12.980;2022-07-12T12:31:33;27.70;71.60
29201;DHT22;16244;51.956;12.980;2022-07-12T12:34:09;27.60;72.10
29201;DHT22;16244;51.956;12.980;2022-07-12T12:36:37;27.70;71.90
29201;DHT22;16244;51.956;12.980;2022-07-12T12:39:05;27.70;71.60
29201;DHT22;16244;51.956;12.980;2022-07-12T12:41:38;27.50;75.30
29201;DHT22;16244;51.956;12.980;2022-07-12T12:44:07;27.50;71.70
29201;DHT22;16244;51.956;12.980;2022-07-12T12:46:51;27.40;71.50
29201;DHT22;16244;51.956;12.980;2022-07-12T12:49:19;27.30;69.80
29201;DHT22;16244;51.956;12.980;2022-07-12T12:51:53;27.20;70.60
29201;DHT22;16244;51.956;12.980;2022-07-12T12:54:32;27.00;72.10
29201;DHT22;16244;51.956;12.980;2022-07-12T12:56:59;27.40;71.40
29201;DHT22;16244;51.956;12.980;2022-07-12T12:59:26;27.60;71.40
29201;DHT22;16244;51.956;12.980;2022-07-12T13:01:53;27.80;73.90
29201;DHT22;16244;51.956;12.980;2022-07-12T13:04:21;28.00;74.90
29201;DHT22;16244;51.956;12.980;2022-07-12T13:06:48;28.00;72.40
29201;DHT22;16244;51.956;12.980;2022-07-12T13:09:15;28.00;75.60
29201;DHT22;16244;51.956;12.980;2022-07-12T13:11:44;28.10;70.80
29201;DHT22;16244;51.956;12.980;2022-07-12T13:14:11;27.90;73.00
29201;DHT22;16244;51.956;12.980;2022-07-12T13:16:38;28.00;77.70
29201;DHT22;16244;51.956;12.980;2022-07-12T13:19:05;27.90;77.70
29201;DHT22;16244;51.956;12.980;2022-07-12T13:21:33;28.20;75.30
29201;DHT22;16244;51.956;12.980;2022-07-12T13:24:00;28.30;71.60
29201;DHT22;16244;51.956;12.980;2022-07-12T13:26:28;28.30;71.40
29201;DHT22;16244;51.956;12.980;2022-07-12T13:28:56;28.20;72.30
29201;DHT22;16244;51.956;12.980;2022-07-12T13:31:23;28.30;73.80
29201;DHT22;16244;51.956;12.980;2022-07-12T13:33:52;28.20;73.90
29201;DHT22;16244;51.956;12.980;2022-07-12T13:36:19;28.50;74.00
29201;DHT22;16244;51.956;12.980;2022-07-12T13:38:47;29.10;73.90
29201;DHT22;16244;51.956;12.980;2022-07-12T13:41:15;29.10;72.70
29201;DHT22;16244;51.956;12.980;2022-07-12T13:43:42;28.90;70.70
29201;DHT22;16244;51.956;12.980;2022-07-12T13:46:10;29.00;72.50
29201;DHT22;16244;51.956;12.980;2022-07-12T13:48:38;29.00;75.30
29201;DHT22;16244;51.956;12.980;2022-07-12T13:51:05;29.10;75.30
29201;DHT22;16244;51.956;12.980;2022-07-12T13:53:32;29.00;74.40
29201;DHT22;16244;51.956;12.980;2022-07-12T13:55:59;28.20;73.60
29201;DHT22;16244;51.956;12.980;2022-07-12T13:58:26;28.00;75.00
29201;DHT22;16244;51.956;12.980;2022-07-12T14:00:53;28.20;74.90
29201;DHT22;16244;51.956;12.980;2022-07-12T14:03:22;28.10;75.00
29201;DHT22;16244;51.956;12.980;2022-07-12T14:05:52;28.10;75.00
29201;DHT22;16244;51.956;12.980;2022-07-12T14:08:19;28.40;74.50
29201;DHT22;16244;51.956;12.980;2022-07-12T14:10:46;28.60;72.00
29201;DHT22;16244;51.956;12.980;2022-07-12T14:13:14;28.70;72.20
29201;DHT22;16244;51.956;12.980;2022-07-12T14:15:41;28.50;73.00
29201;DHT22;16244;51.956;12.980;2022-07-12T14:18:09;28.80;76.70
29201;DHT22;16244;51.956;12.980;2022-07-12T14:20:38;29.20;78.50
29201;DHT22;16244;51.956;12.980;2022-07-12T14:23:05;29.50;75.50
29201;DHT22;16244;51.956;12.980;2022-07-12T14:25:33;29.50;74.10
29201;DHT22;16244;51.956;12.980;2022-07-12T14:28:00;29.70;73.40
29201;DHT22;16244;51.956;12.980;2022-07-12T14:30:27;29.70;73.60
29201;DHT22;16244;51.956;12.980;2022-07-12T14:32:54;29.70;71.70
29201;DHT22;16244;51.956;12.980;2022-07-12T14:35:22;29.70;71.30
29201;DHT22;16244;51.956;12.980;2022-07-12T14:37:50;29.40;71.40
29201;DHT22;16244;51.956;12.980;2022-07-12T14:40:17;29.10;72.30
29201;DHT22;16244;51.956;12.980;2022-07-12T14:42:44;29.00;73.10
29201;DHT22;16244;51.956;12.980;2022-07-12T14:45:11;28.70;73.00
29201;DHT22;16244;51.956;12.980;2022-07-12T14:47:39;28.80;73.00
29201;DHT22;16244;51.956;12.980;2022-07-12T14:50:07;28.90;73.90
29201;DHT22;16244;51.956;12.980;2022-07-12T14:52:34;29.10;74.10
29201;DHT22;16244;51.956;12.980;2022-07-12T14:55:03;28.80;72.80
29201;DHT22;16244;51.956;12.980;2022-07-12T14:57:30;29.10;73.80
29201;DHT22;16244;51.956;12.980;2022-07-12T14:59:57;29.40;72.90
29201;DHT22;16244;51.956;12.980;2022-07-12T15:02:24;29.60;72.60
29201;DHT22;16244;51.956;12.980;2022-07-12T15:04:54;29.70;73.00
29201;DHT22;16244;51.956;12.980;2022-07-12T15:07:21;29.00;73.90
29201;DHT22;16244;51.956;12.980;2022-07-12T15:09:48;28.70;73.90
29201;DHT22;16244;51.956;12.980;2022-07-12T15:12:16;28.70;74.20
29201;DHT22;16244;51.956;12.980;2022-07-12T15:14:44;28.80;73.80
29201;DHT22;16244;51.956;12.980;2022-07-12T15:17:11;29.00;76.60
29201;DHT22;16244;51.956;12.980;2022-07-12T15:19:39;29.10;73.00
29201;DHT22;16244;51.956;12.980;2022-07-12T15:22:06;29.10;73.00
29201;DHT22;16244;51.956;12.980;2022-07-12T15:24:33;29.10;77.00
29201;DHT22;16244;51.956;12.980;2022-07-12T15:27:00;29.10;71.90
29201;DHT22;16244;51.956;12.980;2022-07-12T15:29:30;29.20;73.70
29201;DHT22;16244;51.956;12.980;2022-07-12T15:31:58;29.30;74.00